sensor_id;sensor_type;location;lat;lon;timestamp;P1;durP1;ratioP1;P2;durP2;ratioP2
27375;SDS011;14844;51.302;6.354;2023-03-02T00:01:02;19.10;;;10.10;;
27375;SDS011;14844;51.302;6.354;2023-03-02T00:03:32;15.63;;;9.07;;
27375;SDS011;14844;51.302;6.354;2023-03-02T00:06:00;16.77;;;9.45;;
27375;SDS011;14844;51.302;6.354;2023-03-02T00:08:27;16.33;;;9.70;;
27375;SDS011;14844;51.302;6.354;2023-03-02T00:10:53;18.52;;;9.25;;
27375;SDS011;14844;51.302;6.354;2023-03-02T00:13:22;19.55;;;9.43;;
27375;SDS011;14844;51.302;6.354;2023-03-02T00:15:48;18.02;;;9.65;;
27375;SDS011;14844;51.302;6.354;2023-03-02T00:18:13;19.23;;;9.77;;
27375;SDS011;14844;51.302;6.354;2023-03-02T00:20:39;18.85;;;10.48;;
27375;SDS011;14844;51.302;6.354;2023-03-02T00:23:04;18.08;;;9.68;;
27375;SDS011;14844;51.302;6.354;2023-03-02T00:25:30;16.35;;;9.30;;
27375;SDS011;14844;51.302;6.354;2023-03-02T00:27:55;16.63;;;9.85;;
27375;SDS011;14844;51.302;6.354;2023-03-02T00:30:22;18.27;;;10.35;;
27375;SDS011;14844;51.302;6.354;2023-03-02T00:32:48;19.70;;;10.10;;
27375;SDS011;14844;51.302;6.354;2023-03-02T00:35:13;16.58;;;9.68;;
27375;SDS011;14844;51.302;6.354;2023-03-02T00:37:39;19.20;;;10.25;;
27375;SDS011;14844;51.302;6.354;2023-03-02T00:40:05;16.30;;;9.52;;
27375;SDS011;14844;51.302;6.354;2023-03-02T00:42:33;17.58;;;9.98;;
27375;SDS011;14844;51.302;6.354;2023-03-02T00:45:00;21.50;;;10.82;;
27375;SDS011;14844;51.302;6.354;2023-03-02T00:47:26;19.80;;;10.25;;
27375;SDS011;14844;51.302;6.354;2023-03-02T00:49:53;23.35;;;11.02;;
27375;SDS011;14844;51.302;6.354;2023-03-02T00:52:19;17.92;;;10.27;;
27375;SDS011;14844;51.302;6.354;2023-03-02T00:54:45;21.52;;;10.77;;
27375;SDS011;14844;51.302;6.354;2023-03-02T00:57:10;21.30;;;10.80;;
27375;SDS011;14844;51.302;6.354;2023-03-02T00:59:36;19.35;;;10.85;;
27375;SDS011;14844;51.302;6.354;2023-03-02T01:02:03;19.85;;;10.65;;
27375;SDS011;14844;51.302;6.354;2023-03-02T01:04:34;28.70;;;10.55;;
27375;SDS011;14844;51.302;6.354;2023-03-02T01:07:03;18.98;;;10.73;;
27375;SDS011;14844;51.302;6.354;2023-03-02T01:09:37;19.17;;;10.90;;
27375;SDS011;14844;51.302;6.354;2023-03-02T01:12:04;20.58;;;10.93;;
27375;SDS011;14844;51.302;6.354;2023-03-02T01:14:33;20.52;;;11.30;;
27375;SDS011;14844;51.302;6.354;2023-03-02T01:17:00;21.17;;;10.65;;
27375;SDS011;14844;51.302;6.354;2023-03-02T01:19:26;22.38;;;11.40;;
27375;SDS011;14844;51.302;6.354;2023-03-02T01:21:52;19.73;;;10.90;;
27375;SDS011;14844;51.302;6.354;2023-03-02T01:24:17;18.20;;;10.20;;
27375;SDS011;14844;51.302;6.354;2023-03-02T01:26:43;18.63;;;10.75;;
27375;SDS011;14844;51.302;6.354;2023-03-02T01:29:08;17.67;;;10.13;;
27375;SDS011;14844;51.302;6.354;2023-03-02T01:31:35;18.30;;;10.50;;
27375;SDS011;14844;51.302;6.354;2023-03-02T01:34:01;17.90;;;10.30;;
27375;SDS011;14844;51.302;6.354;2023-03-02T01:36:27;18.77;;;10.93;;
27375;SDS011;14844;51.302;6.354;2023-03-02T01:38:52;18.90;;;10.63;;
27375;SDS011;14844;51.302;6.354;2023-03-02T01:41:18;20.70;;;11.00;;
27375;SDS011;14844;51.302;6.354;2023-03-02T01:43:44;22.67;;;11.13;;
27375;SDS011;14844;51.302;6.354;2023-03-02T01:46:14;20.50;;;10.82;;
27375;SDS011;14844;51.302;6.354;2023-03-02T01:48:53;21.30;;;11.20;;
27375;SDS011;14844;51.302;6.354;2023-03-02T01:51:39;20.50;;;11.18;;
27375;SDS011;14844;51.302;6.354;2023-03-02T01:54:10;18.65;;;10.95;;
27375;SDS011;14844;51.302;6.354;2023-03-02T01:56:41;18.23;;;10.90;;
27375;SDS011;14844;51.302;6.354;2023-03-02T01:59:09;19.05;;;10.15;;
27375;SDS011;14844;51.302;6.354;2023-03-02T02:01:38;19.98;;;11.32;;
27375;SDS011;14844;51.302;6.354;2023-03-02T02:04:06;23.20;;;11.15;;
27375;SDS011;14844;51.302;6.354;2023-03-02T02:09:04;18.83;;;10.68;;
27375;SDS011;14844;51.302;6.354;2023-03-02T02:11:33;21.38;;;11.45;;
27375;SDS011;14844;51.302;6.354;2023-03-02T02:13:59;19.60;;;10.68;;
27375;SDS011;14844;51.302;6.354;2023-03-02T02:16:26;19.38;;;10.60;;
27375;SDS011;14844;51.302;6.354;2023-03-02T02:18:53;20.40;;;11.15;;
27375;SDS011;14844;51.302;6.354;2023-03-02T02:21:19;23.00;;;11.23;;
27375;SDS011;14844;51.302;6.354;2023-03-02T02:26:25;20.40;;;10.95;;
27375;SDS011;14844;51.302;6.354;2023-03-02T02:28:57;21.63;;;10.40;;
27375;SDS011;14844;51.302;6.354;2023-03-02T02:31:29;17.58;;;11.05;;
27375;SDS011;14844;51.302;6.354;2023-03-02T02:34:36;17.83;;;10.80;;
27375;SDS011;14844;51.302;6.354;2023-03-02T02:39:50;17.85;;;10.45;;
27375;SDS011;14844;51.302;6.354;2023-03-02T02:42:29;18.67;;;9.73;;
27375;SDS011;14844;51.302;6.354;2023-03-02T02:44:59;18.45;;;10.30;;
27375;SDS011;14844;51.302;6.354;2023-03-02T02:47:27;20.10;;;10.20;;
27375;SDS011;14844;51.302;6.354;2023-03-02T02:49:53;17.30;;;10.32;;
27375;SDS011;14844;51.302;6.354;2023-03-02T02:52:21;18.67;;;10.40;;
27375;SDS011;14844;51.302;6.354;2023-03-02T02:54:51;20.38;;;9.93;;
27375;SDS011;14844;51.302;6.354;2023-03-02T02:57:19;19.42;;;10.10;;
27375;SDS011;14844;51.302;6.354;2023-03-02T02:59:57;16.75;;;9.98;;
27375;SDS011;14844;51.302;6.354;2023-03-02T03:02:25;18.77;;;10.23;;
27375;SDS011;14844;51.302;6.354;2023-03-02T03:04:52;21.88;;;10.98;;
27375;SDS011;14844;51.302;6.354;2023-03-02T03:07:27;15.95;;;9.32;;
27375;SDS011;14844;51.302;6.354;2023-03-02T03:09:55;19.65;;;10.40;;
27375;SDS011;14844;51.302;6.354;2023-03-02T03:12:42;20.52;;;10.45;;
27375;SDS011;14844;51.302;6.354;2023-03-02T03:15:08;17.85;;;10.18;;
27375;SDS011;14844;51.302;6.354;2023-03-02T03:17:35;19.50;;;9.98;;
27375;SDS011;14844;51.302;6.354;2023-03-02T03:20:01;19.13;;;10.23;;
27375;SDS011;14844;51.302;6.354;2023-03-02T03:22:31;17.73;;;9.82;;
27375;SDS011;14844;51.302;6.354;2023-03-02T03:25:01;20.48;;;10.27;;
27375;SDS011;14844;51.302;6.354;2023-03-02T03:27:27;20.67;;;9.73;;
27375;SDS011;14844;51.302;6.354;2023-03-02T03:29:53;23.73;;;9.77;;
27375;SDS011;14844;51.302;6.354;2023-03-02T03:32:18;19.00;;;10.13;;
27375;SDS011;14844;51.302;6.354;2023-03-02T03:34:44;20.77;;;10.68;;
27375;SDS011;14844;51.302;6.354;2023-03-02T03:37:12;18.17;;;10.43;;
27375;SDS011;14844;51.302;6.354;2023-03-02T03:39:40;20.73;;;10.70;;
27375;SDS011;14844;51.302;6.354;2023-03-02T03:42:06;19.40;;;10.20;;
27375;SDS011;14844;51.302;6.354;2023-03-02T03:44:31;17.42;;;10.30;;
27375;SDS011;14844;51.302;6.354;2023-03-02T03:46:57;19.50;;;10.98;;
27375;SDS011;14844;51.302;6.354;2023-03-02T03:49:23;18.85;;;10.73;;
27375;SDS011;14844;51.302;6.354;2023-03-02T03:51:49;19.27;;;10.75;;
27375;SDS011;14844;51.302;6.354;2023-03-02T03:54:15;17.58;;;10.43;;
27375;SDS011;14844;51.302;6.354;2023-03-02T03:56:42;17.67;;;10.20;;
27375;SDS011;14844;51.302;6.354;2023-03-02T04:01:41;20.95;;;10.90;;
27375;SDS011;14844;51.302;6.354;2023-03-02T04:04:28;17.27;;;10.20;;
27375;SDS011;14844;51.302;6.354;2023-03-02T04:06:56;21.10;;;10.82;;
27375;SDS011;14844;51.302;6.354;2023-03-02T04:09:22;19.70;;;10.18;;
27375;SDS011;14844;51.302;6.354;2023-03-02T04:11:50;23.42;;;10.45;;
27375;SDS011;14844;51.302;6.354;2023-03-02T04:14:17;20.02;;;10.75;;
27375;SDS011;14844;51.302;6.354;2023-03-02T04:16:44;19.00;;;10.27;;
27375;SDS011;14844;51.302;6.354;2023-03-02T04:19:10;20.77;;;10.20;;
27375;SDS011;14844;51.302;6.354;2023-03-02T04:21:37;18.17;;;9.73;;
27375;SDS011;14844;51.302;6.354;2023-03-02T04:24:05;22.83;;;11.05;;
27375;SDS011;14844;51.302;6.354;2023-03-02T04:26:31;19.17;;;10.85;;
27375;SDS011;14844;51.302;6.354;2023-03-02T04:28:57;20.08;;;10.45;;
27375;SDS011;14844;51.302;6.354;2023-03-02T04:31:23;19.83;;;10.82;;
27375;SDS011;14844;51.302;6.354;2023-03-02T04:33:49;24.23;;;10.15;;
27375;SDS011;14844;51.302;6.354;2023-03-02T04:36:14;20.20;;;10.10;;
27375;SDS011;14844;51.302;6.354;2023-03-02T04:38:40;17.85;;;11.13;;
27375;SDS011;14844;51.302;6.354;2023-03-02T04:41:05;21.75;;;11.73;;
27375;SDS011;14844;51.302;6.354;2023-03-02T04:43:31;26.25;;;11.18;;
27375;SDS011;14844;51.302;6.354;2023-03-02T04:45:56;19.75;;;11.32;;
27375;SDS011;14844;51.302;6.354;2023-03-02T04:48:22;17.95;;;11.27;;
27375;SDS011;14844;51.302;6.354;2023-03-02T04:50:48;24.63;;;11.63;;
27375;SDS011;14844;51.302;6.354;2023-03-02T04:53:14;18.45;;;10.80;;
27375;SDS011;14844;51.302;6.354;2023-03-02T04:55:40;21.38;;;11.27;;
27375;SDS011;14844;51.302;6.354;2023-03-02T04:58:06;19.45;;;11.02;;
27375;SDS011;14844;51.302;6.354;2023-03-02T05:00:32;22.35;;;11.30;;
27375;SDS011;14844;51.302;6.354;2023-03-02T05:02:59;24.80;;;10.82;;
27375;SDS011;14844;51.302;6.354;2023-03-02T05:05:26;20.92;;;10.80;;
27375;SDS011;14844;51.302;6.354;2023-03-02T05:07:52;16.55;;;10.70;;
27375;SDS011;14844;51.302;6.354;2023-03-02T05:10:18;19.50;;;10.85;;
27375;SDS011;14844;51.302;6.354;2023-03-02T05:12:45;23.48;;;11.45;;
27375;SDS011;14844;51.302;6.354;2023-03-02T05:15:23;20.02;;;10.77;;
27375;SDS011;14844;51.302;6.354;2023-03-02T05:17:52;17.98;;;10.52;;
27375;SDS011;14844;51.302;6.354;2023-03-02T05:20:18;17.65;;;10.45;;
27375;SDS011;14844;51.302;6.354;2023-03-02T05:22:43;22.33;;;10.57;;
27375;SDS011;14844;51.302;6.354;2023-03-02T05:25:09;22.25;;;10.90;;
27375;SDS011;14844;51.302;6.354;2023-03-02T05:27:35;19.60;;;10.13;;
27375;SDS011;14844;51.302;6.354;2023-03-02T05:30:04;19.05;;;10.73;;
27375;SDS011;14844;51.302;6.354;2023-03-02T05:32:30;21.48;;;10.75;;
27375;SDS011;14844;51.302;6.354;2023-03-02T05:34:56;23.27;;;10.60;;
27375;SDS011;14844;51.302;6.354;2023-03-02T05:37:21;19.85;;;10.75;;
27375;SDS011;14844;51.302;6.354;2023-03-02T05:39:47;19.05;;;9.52;;
27375;SDS011;14844;51.302;6.354;2023-03-02T05:42:13;17.10;;;8.98;;
27375;SDS011;14844;51.302;6.354;2023-03-02T05:44:38;18.08;;;9.55;;
27375;SDS011;14844;51.302;6.354;2023-03-02T05:47:04;20.38;;;10.43;;
27375;SDS011;14844;51.302;6.354;2023-03-02T05:49:29;18.98;;;9.30;;
27375;SDS011;14844;51.302;6.354;2023-03-02T05:51:55;21.50;;;9.80;;
27375;SDS011;14844;51.302;6.354;2023-03-02T05:54:21;16.13;;;9.57;;
27375;SDS011;14844;51.302;6.354;2023-03-02T05:56:46;20.25;;;9.45;;
27375;SDS011;14844;51.302;6.354;2023-03-02T05:59:12;16.88;;;9.45;;
27375;SDS011;14844;51.302;6.354;2023-03-02T06:01:37;18.17;;;9.90;;
27375;SDS011;14844;51.302;6.354;2023-03-02T06:04:03;21.88;;;9.38;;
27375;SDS011;14844;51.302;6.354;2023-03-02T06:06:29;19.25;;;9.18;;
27375;SDS011;14844;51.302;6.354;2023-03-02T06:08:55;18.48;;;9.40;;
27375;SDS011;14844;51.302;6.354;2023-03-02T06:11:20;18.05;;;9.55;;
27375;SDS011;14844;51.302;6.354;2023-03-02T06:13:46;17.77;;;9.18;;
27375;SDS011;14844;51.302;6.354;2023-03-02T06:16:11;18.77;;;9.30;;
27375;SDS011;14844;51.302;6.354;2023-03-02T06:18:37;18.08;;;9.27;;
27375;SDS011;14844;51.302;6.354;2023-03-02T06:21:03;20.38;;;9.68;;
27375;SDS011;14844;51.302;6.354;2023-03-02T06:23:28;19.15;;;9.40;;
27375;SDS011;14844;51.302;6.354;2023-03-02T06:25:54;22.42;;;9.07;;
27375;SDS011;14844;51.302;6.354;2023-03-02T06:28:19;16.73;;;8.90;;
27375;SDS011;14844;51.302;6.354;2023-03-02T06:30:46;18.33;;;9.00;;
27375;SDS011;14844;51.302;6.354;2023-03-02T06:33:13;16.95;;;8.93;;
27375;SDS011;14844;51.302;6.354;2023-03-02T06:35:40;16.92;;;8.77;;
27375;SDS011;14844;51.302;6.354;2023-03-02T06:38:06;20.02;;;9.18;;
27375;SDS011;14844;51.302;6.354;2023-03-02T06:40:32;18.92;;;9.13;;
27375;SDS011;14844;51.302;6.354;2023-03-02T06:42:57;18.50;;;9.10;;
27375;SDS011;14844;51.302;6.354;2023-03-02T06:45:24;18.58;;;9.45;;
27375;SDS011;14844;51.302;6.354;2023-03-02T06:47:51;24.25;;;12.02;;
27375;SDS011;14844;51.302;6.354;2023-03-02T06:50:17;16.52;;;8.35;;
27375;SDS011;14844;51.302;6.354;2023-03-02T06:52:43;16.92;;;9.30;;
27375;SDS011;14844;51.302;6.354;2023-03-02T06:55:08;18.83;;;9.07;;
27375;SDS011;14844;51.302;6.354;2023-03-02T06:57:34;16.52;;;8.90;;
27375;SDS011;14844;51.302;6.354;2023-03-02T07:00:01;18.20;;;8.63;;
27375;SDS011;14844;51.302;6.354;2023-03-02T07:02:33;23.00;;;9.55;;
27375;SDS011;14844;51.302;6.354;2023-03-02T07:04:59;20.02;;;8.55;;
27375;SDS011;14844;51.302;6.354;2023-03-02T07:07:25;15.82;;;8.10;;
27375;SDS011;14844;51.302;6.354;2023-03-02T07:09:50;15.35;;;8.43;;
27375;SDS011;14844;51.302;6.354;2023-03-02T07:12:16;14.82;;;8.50;;
27375;SDS011;14844;51.302;6.354;2023-03-02T07:14:41;18.20;;;9.15;;
27375;SDS011;14844;51.302;6.354;2023-03-02T07:17:07;16.80;;;8.23;;
27375;SDS011;14844;51.302;6.354;2023-03-02T07:19:32;17.35;;;8.55;;
27375;SDS011;14844;51.302;6.354;2023-03-02T07:21:58;18.30;;;8.73;;
27375;SDS011;14844;51.302;6.354;2023-03-02T07:24:24;15.02;;;8.30;;
27375;SDS011;14844;51.302;6.354;2023-03-02T07:26:49;15.27;;;8.38;;
27375;SDS011;14844;51.302;6.354;2023-03-02T07:29:15;18.63;;;8.65;;
27375;SDS011;14844;51.302;6.354;2023-03-02T07:31:40;17.63;;;8.35;;
27375;SDS011;14844;51.302;6.354;2023-03-02T07:34:08;18.38;;;8.80;;
27375;SDS011;14844;51.302;6.354;2023-03-02T07:36:33;18.45;;;8.73;;
27375;SDS011;14844;51.302;6.354;2023-03-02T07:39:00;15.63;;;8.63;;
27375;SDS011;14844;51.302;6.354;2023-03-02T07:41:26;17.60;;;9.05;;
27375;SDS011;14844;51.302;6.354;2023-03-02T07:43:52;18.83;;;8.93;;
27375;SDS011;14844;51.302;6.354;2023-03-02T07:46:18;15.88;;;7.82;;
27375;SDS011;14844;51.302;6.354;2023-03-02T07:48:43;19.35;;;8.77;;
27375;SDS011;14844;51.302;6.354;2023-03-02T07:51:09;15.30;;;8.35;;
27375;SDS011;14844;51.302;6.354;2023-03-02T07:53:34;14.82;;;8.55;;
27375;SDS011;14844;51.302;6.354;2023-03-02T07:56:04;17.48;;;8.73;;
27375;SDS011;14844;51.302;6.354;2023-03-02T07:58:33;16.42;;;8.55;;
27375;SDS011;14844;51.302;6.354;2023-03-02T08:00:59;15.93;;;8.52;;
27375;SDS011;14844;51.302;6.354;2023-03-02T08:03:24;17.40;;;8.45;;
27375;SDS011;14844;51.302;6.354;2023-03-02T08:05:50;16.30;;;8.40;;
27375;SDS011;14844;51.302;6.354;2023-03-02T08:08:16;15.13;;;8.30;;
27375;SDS011;14844;51.302;6.354;2023-03-02T08:10:41;17.05;;;8.60;;
27375;SDS011;14844;51.302;6.354;2023-03-02T08:13:07;17.70;;;8.40;;
27375;SDS011;14844;51.302;6.354;2023-03-02T08:15:32;17.25;;;8.50;;
27375;SDS011;14844;51.302;6.354;2023-03-02T08:17:59;19.13;;;8.32;;
27375;SDS011;14844;51.302;6.354;2023-03-02T08:20:24;23.48;;;8.82;;
27375;SDS011;14844;51.302;6.354;2023-03-02T08:22:50;14.82;;;8.63;;
27375;SDS011;14844;51.302;6.354;2023-03-02T08:25:16;18.20;;;8.60;;
27375;SDS011;14844;51.302;6.354;2023-03-02T08:27:42;14.05;;;8.15;;
27375;SDS011;14844;51.302;6.354;2023-03-02T08:30:08;16.30;;;8.05;;
27375;SDS011;14844;51.302;6.354;2023-03-02T08:32:35;14.23;;;8.20;;
27375;SDS011;14844;51.302;6.354;2023-03-02T08:35:00;22.95;;;8.43;;
27375;SDS011;14844;51.302;6.354;2023-03-02T08:37:26;18.98;;;8.30;;
27375;SDS011;14844;51.302;6.354;2023-03-02T08:39:52;17.75;;;8.63;;
27375;SDS011;14844;51.302;6.354;2023-03-02T08:42:18;15.07;;;7.63;;
27375;SDS011;14844;51.302;6.354;2023-03-02T08:44:43;17.42;;;8.02;;
27375;SDS011;14844;51.302;6.354;2023-03-02T08:47:09;17.15;;;7.75;;
27375;SDS011;14844;51.302;6.354;2023-03-02T08:49:34;16.05;;;7.80;;
27375;SDS011;14844;51.302;6.354;2023-03-02T08:52:02;15.02;;;7.35;;
27375;SDS011;14844;51.302;6.354;2023-03-02T08:54:28;16.60;;;8.20;;
27375;SDS011;14844;51.302;6.354;2023-03-02T08:56:54;18.35;;;7.90;;
27375;SDS011;14844;51.302;6.354;2023-03-02T08:59:20;17.50;;;7.35;;
27375;SDS011;14844;51.302;6.354;2023-03-02T09:01:45;14.50;;;8.07;;
27375;SDS011;14844;51.302;6.354;2023-03-02T09:04:11;13.70;;;7.45;;
27375;SDS011;14844;51.302;6.354;2023-03-02T09:06:41;16.00;;;8.27;;
27375;SDS011;14844;51.302;6.354;2023-03-02T09:09:08;14.57;;;7.87;;
27375;SDS011;14844;51.302;6.354;2023-03-02T09:11:35;15.65;;;7.70;;
27375;SDS011;14844;51.302;6.354;2023-03-02T09:14:00;15.60;;;7.70;;
27375;SDS011;14844;51.302;6.354;2023-03-02T09:16:26;15.23;;;7.80;;
27375;SDS011;14844;51.302;6.354;2023-03-02T09:18:52;18.17;;;7.80;;
27375;SDS011;14844;51.302;6.354;2023-03-02T09:21:19;18.65;;;8.27;;
27375;SDS011;14844;51.302;6.354;2023-03-02T09:23:44;19.40;;;8.05;;
27375;SDS011;14844;51.302;6.354;2023-03-02T09:26:10;19.48;;;8.77;;
27375;SDS011;14844;51.302;6.354;2023-03-02T09:28:36;13.25;;;7.40;;
27375;SDS011;14844;51.302;6.354;2023-03-02T09:31:03;15.50;;;7.65;;
27375;SDS011;14844;51.302;6.354;2023-03-02T09:33:30;18.60;;;8.23;;
27375;SDS011;14844;51.302;6.354;2023-03-02T09:35:57;14.50;;;7.63;;
27375;SDS011;14844;51.302;6.354;2023-03-02T09:38:22;15.60;;;8.05;;
27375;SDS011;14844;51.302;6.354;2023-03-02T09:54:08;16.65;;;8.77;;
27375;SDS011;14844;51.302;6.354;2023-03-02T09:56:38;20.25;;;8.88;;
27375;SDS011;14844;51.302;6.354;2023-03-02T09:59:17;20.25;;;8.43;;
27375;SDS011;14844;51.302;6.354;2023-03-02T10:01:55;17.73;;;8.98;;
27375;SDS011;14844;51.302;6.354;2023-03-02T10:04:27;20.20;;;9.27;;
27375;SDS011;14844;51.302;6.354;2023-03-02T10:06:56;21.63;;;8.77;;
27375;SDS011;14844;51.302;6.354;2023-03-02T10:09:25;22.05;;;8.43;;
27375;SDS011;14844;51.302;6.354;2023-03-02T10:14:33;20.27;;;9.13;;
27375;SDS011;14844;51.302;6.354;2023-03-02T10:19:51;17.15;;;8.80;;
27375;SDS011;14844;51.302;6.354;2023-03-02T10:22:24;16.42;;;7.93;;
27375;SDS011;14844;51.302;6.354;2023-03-02T10:25:19;17.33;;;8.48;;
27375;SDS011;14844;51.302;6.354;2023-03-02T10:27:55;19.05;;;8.32;;
27375;SDS011;14844;51.302;6.354;2023-03-02T10:30:30;19.48;;;8.73;;
27375;SDS011;14844;51.302;6.354;2023-03-02T10:33:03;15.13;;;7.65;;
27375;SDS011;14844;51.302;6.354;2023-03-02T10:35:37;14.32;;;7.97;;
27375;SDS011;14844;51.302;6.354;2023-03-02T10:38:10;15.57;;;7.60;;
27375;SDS011;14844;51.302;6.354;2023-03-02T10:40:44;18.00;;;8.30;;
27375;SDS011;14844;51.302;6.354;2023-03-02T10:43:29;15.32;;;7.50;;
27375;SDS011;14844;51.302;6.354;2023-03-02T10:46:10;18.80;;;7.90;;
27375;SDS011;14844;51.302;6.354;2023-03-02T10:48:47;14.13;;;7.85;;
27375;SDS011;14844;51.302;6.354;2023-03-02T10:51:35;18.98;;;8.13;;
27375;SDS011;14844;51.302;6.354;2023-03-02T10:54:12;15.60;;;8.15;;
27375;SDS011;14844;51.302;6.354;2023-03-02T10:56:40;16.08;;;7.65;;
27375;SDS011;14844;51.302;6.354;2023-03-02T11:04:47;15.30;;;8.20;;
27375;SDS011;14844;51.302;6.354;2023-03-02T11:07:18;17.00;;;8.20;;
27375;SDS011;14844;51.302;6.354;2023-03-02T11:10:04;15.98;;;8.40;;
27375;SDS011;14844;51.302;6.354;2023-03-02T11:12:32;14.48;;;7.97;;
27375;SDS011;14844;51.302;6.354;2023-03-02T11:15:22;15.55;;;8.23;;
27375;SDS011;14844;51.302;6.354;2023-03-02T11:20:26;16.92;;;8.25;;
27375;SDS011;14844;51.302;6.354;2023-03-02T11:23:01;14.15;;;8.00;;
27375;SDS011;14844;51.302;6.354;2023-03-02T11:25:47;16.88;;;8.40;;
27375;SDS011;14844;51.302;6.354;2023-03-02T11:28:23;16.27;;;7.68;;
27375;SDS011;14844;51.302;6.354;2023-03-02T11:31:11;14.30;;;7.63;;
27375;SDS011;14844;51.302;6.354;2023-03-02T11:33:50;15.02;;;8.07;;
27375;SDS011;14844;51.302;6.354;2023-03-02T11:36:43;12.65;;;7.38;;
27375;SDS011;14844;51.302;6.354;2023-03-02T11:39:33;14.27;;;7.90;;
27375;SDS011;14844;51.302;6.354;2023-03-02T11:42:24;16.17;;;8.40;;
27375;SDS011;14844;51.302;6.354;2023-03-02T11:44:55;17.88;;;7.68;;
27375;SDS011;14844;51.302;6.354;2023-03-02T11:47:26;15.50;;;7.82;;
27375;SDS011;14844;51.302;6.354;2023-03-02T11:49:56;14.70;;;8.20;;
27375;SDS011;14844;51.302;6.354;2023-03-02T11:52:26;17.45;;;8.48;;
27375;SDS011;14844;51.302;6.354;2023-03-02T11:57:39;20.55;;;8.45;;
27375;SDS011;14844;51.302;6.354;2023-03-02T12:00:35;13.88;;;7.63;;
27375;SDS011;14844;51.302;6.354;2023-03-02T12:05:36;21.65;;;9.23;;
27375;SDS011;14844;51.302;6.354;2023-03-02T12:08:28;17.10;;;9.00;;
27375;SDS011;14844;51.302;6.354;2023-03-02T12:10:56;16.83;;;8.10;;
27375;SDS011;14844;51.302;6.354;2023-03-02T12:13:29;19.52;;;9.50;;
27375;SDS011;14844;51.302;6.354;2023-03-02T12:15:56;27.25;;;12.65;;
27375;SDS011;14844;51.302;6.354;2023-03-02T12:23:53;19.23;;;9.10;;
27375;SDS011;14844;51.302;6.354;2023-03-02T12:26:31;19.10;;;9.82;;
27375;SDS011;14844;51.302;6.354;2023-03-02T12:29:19;19.35;;;9.05;;
27375;SDS011;14844;51.302;6.354;2023-03-02T12:31:48;19.15;;;10.77;;
27375;SDS011;14844;51.302;6.354;2023-03-02T12:36:44;15.63;;;8.60;;
27375;SDS011;14844;51.302;6.354;2023-03-02T12:41:50;16.10;;;7.85;;
27375;SDS011;14844;51.302;6.354;2023-03-02T12:44:28;17.45;;;8.52;;
27375;SDS011;14844;51.302;6.354;2023-03-02T12:46:58;18.20;;;8.52;;
27375;SDS011;14844;51.302;6.354;2023-03-02T12:52:24;14.65;;;7.85;;
27375;SDS011;14844;51.302;6.354;2023-03-02T12:57:46;17.77;;;9.77;;
27375;SDS011;14844;51.302;6.354;2023-03-02T13:00:17;18.20;;;8.88;;
27375;SDS011;14844;51.302;6.354;2023-03-02T13:02:48;17.95;;;8.45;;
27375;SDS011;14844;51.302;6.354;2023-03-02T13:05:21;14.45;;;8.48;;
27375;SDS011;14844;51.302;6.354;2023-03-02T13:08:02;19.83;;;8.10;;
27375;SDS011;14844;51.302;6.354;2023-03-02T13:10:52;19.52;;;8.90;;
27375;SDS011;14844;51.302;6.354;2023-03-02T13:13:37;17.42;;;8.15;;
27375;SDS011;14844;51.302;6.354;2023-03-02T13:16:19;18.63;;;8.40;;
27375;SDS011;14844;51.302;6.354;2023-03-02T13:18:45;21.20;;;8.98;;
27375;SDS011;14844;51.302;6.354;2023-03-02T13:21:13;19.02;;;7.95;;
27375;SDS011;14844;51.302;6.354;2023-03-02T13:23:44;18.52;;;8.43;;
27375;SDS011;14844;51.302;6.354;2023-03-02T13:28:49;14.35;;;8.20;;
27375;SDS011;14844;51.302;6.354;2023-03-02T13:31:29;15.25;;;7.70;;
27375;SDS011;14844;51.302;6.354;2023-03-02T13:33:56;12.85;;;6.85;;
27375;SDS011;14844;51.302;6.354;2023-03-02T13:36:23;15.23;;;8.18;;
27375;SDS011;14844;51.302;6.354;2023-03-02T13:38:54;18.00;;;7.72;;
27375;SDS011;14844;51.302;6.354;2023-03-02T13:43:47;16.17;;;7.63;;
27375;SDS011;14844;51.302;6.354;2023-03-02T13:51:24;14.65;;;7.07;;
27375;SDS011;14844;51.302;6.354;2023-03-02T13:53:58;13.13;;;7.03;;
27375;SDS011;14844;51.302;6.354;2023-03-02T13:56:29;14.57;;;6.88;;
27375;SDS011;14844;51.302;6.354;2023-03-02T13:58:57;11.27;;;6.35;;
27375;SDS011;14844;51.302;6.354;2023-03-02T14:01:23;14.10;;;6.93;;
27375;SDS011;14844;51.302;6.354;2023-03-02T14:03:48;13.02;;;7.07;;
27375;SDS011;14844;51.302;6.354;2023-03-02T14:06:14;14.10;;;7.00;;
27375;SDS011;14844;51.302;6.354;2023-03-02T14:08:42;12.75;;;7.28;;
27375;SDS011;14844;51.302;6.354;2023-03-02T14:11:09;16.67;;;7.50;;
27375;SDS011;14844;51.302;6.354;2023-03-02T14:13:56;14.40;;;7.55;;
27375;SDS011;14844;51.302;6.354;2023-03-02T14:16:21;15.88;;;7.63;;
27375;SDS011;14844;51.302;6.354;2023-03-02T14:18:48;15.93;;;6.93;;
27375;SDS011;14844;51.302;6.354;2023-03-02T14:21:19;14.18;;;6.88;;
27375;SDS011;14844;51.302;6.354;2023-03-02T14:23:49;16.27;;;7.00;;
27375;SDS011;14844;51.302;6.354;2023-03-02T14:29:05;15.95;;;7.28;;
27375;SDS011;14844;51.302;6.354;2023-03-02T14:31:40;13.10;;;7.18;;
27375;SDS011;14844;51.302;6.354;2023-03-02T14:34:08;14.38;;;6.78;;
27375;SDS011;14844;51.302;6.354;2023-03-02T14:36:39;11.75;;;6.72;;
27375;SDS011;14844;51.302;6.354;2023-03-02T14:39:14;12.40;;;6.45;;
27375;SDS011;14844;51.302;6.354;2023-03-02T14:41:46;12.50;;;6.70;;
27375;SDS011;14844;51.302;6.354;2023-03-02T14:44:13;12.63;;;6.53;;
27375;SDS011;14844;51.302;6.354;2023-03-02T14:46:38;11.57;;;7.00;;
27375;SDS011;14844;51.302;6.354;2023-03-02T14:49:04;12.88;;;6.60;;
27375;SDS011;14844;51.302;6.354;2023-03-02T14:51:30;11.43;;;6.28;;
27375;SDS011;14844;51.302;6.354;2023-03-02T14:53:59;11.05;;;6.43;;
27375;SDS011;14844;51.302;6.354;2023-03-02T14:56:27;14.32;;;7.53;;
27375;SDS011;14844;51.302;6.354;2023-03-02T14:58:53;12.38;;;6.35;;
27375;SDS011;14844;51.302;6.354;2023-03-02T15:01:19;17.02;;;6.40;;
27375;SDS011;14844;51.302;6.354;2023-03-02T15:03:45;11.32;;;5.88;;
27375;SDS011;14844;51.302;6.354;2023-03-02T15:06:28;12.23;;;6.18;;
27375;SDS011;14844;51.302;6.354;2023-03-02T15:08:55;11.70;;;6.10;;
27375;SDS011;14844;51.302;6.354;2023-03-02T15:11:22;8.25;;;5.13;;
27375;SDS011;14844;51.302;6.354;2023-03-02T15:13:48;10.40;;;5.55;;
27375;SDS011;14844;51.302;6.354;2023-03-02T15:16:14;8.18;;;5.18;;
27375;SDS011;14844;51.302;6.354;2023-03-02T15:18:41;12.27;;;6.90;;
27375;SDS011;14844;51.302;6.354;2023-03-02T15:21:08;10.88;;;5.70;;
27375;SDS011;14844;51.302;6.354;2023-03-02T15:23:39;13.77;;;6.75;;
27375;SDS011;14844;51.302;6.354;2023-03-02T15:26:11;10.88;;;6.57;;
27375;SDS011;14844;51.302;6.354;2023-03-02T15:28:38;9.40;;;5.97;;
27375;SDS011;14844;51.302;6.354;2023-03-02T15:31:11;11.82;;;6.53;;
27375;SDS011;14844;51.302;6.354;2023-03-02T15:33:38;13.48;;;6.05;;
27375;SDS011;14844;51.302;6.354;2023-03-02T15:36:04;11.75;;;5.95;;
27375;SDS011;14844;51.302;6.354;2023-03-02T15:38:31;10.52;;;5.60;;
27375;SDS011;14844;51.302;6.354;2023-03-02T15:41:07;13.82;;;6.55;;
27375;SDS011;14844;51.302;6.354;2023-03-02T15:43:41;11.90;;;6.67;;
27375;SDS011;14844;51.302;6.354;2023-03-02T15:46:07;12.48;;;6.53;;
27375;SDS011;14844;51.302;6.354;2023-03-02T15:48:36;14.77;;;6.22;;
27375;SDS011;14844;51.302;6.354;2023-03-02T15:51:21;9.20;;;5.95;;
27375;SDS011;14844;51.302;6.354;2023-03-02T15:53:57;10.70;;;6.00;;